createdAt,value
2017-12-14T00:00:49.263Z,3.83
2017-12-14T00:03:17.476Z,4.03
2017-12-14T00:05:44.995Z,5.70
2017-12-14T00:08:12.452Z,4.60
2017-12-14T00:10:39.916Z,5.40
2017-12-14T00:13:07.482Z,3.13
2017-12-14T00:15:34.966Z,3.80
2017-12-14T00:18:03.278Z,3.97
2017-12-14T00:20:30.832Z,3.77
2017-12-14T00:22:58.301Z,4.53
2017-12-14T00:25:25.811Z,4.20
2017-12-14T00:27:53.263Z,4.53
2017-12-14T00:30:21.508Z,4.00
2017-12-14T00:32:48.989Z,3.20
2017-12-14T00:35:16.515Z,3.63
2017-12-14T00:37:43.960Z,4.70
2017-12-14T00:40:12.213Z,4.67
2017-12-14T00:42:39.705Z,5.47
2017-12-14T00:45:07.960Z,3.00
2017-12-14T00:47:35.409Z,4.40
2017-12-14T00:50:02.877Z,3.53
2017-12-14T00:52:30.355Z,3.50
2017-12-14T00:54:58.590Z,3.73
2017-12-14T00:57:26.157Z,4.00
2017-12-14T00:59:53.737Z,3.67
2017-12-14T01:02:22.239Z,3.40
2017-12-14T01:04:49.725Z,3.10
2017-12-14T01:07:17.985Z,4.23
2017-12-14T01:09:45.425Z,2.53
2017-12-14T01:12:12.931Z,3.23
2017-12-14T01:14:40.387Z,2.90
2017-12-14T01:17:07.863Z,3.50
2017-12-14T01:19:35.314Z,2.90
2017-12-14T01:22:03.572Z,2.80
2017-12-14T01:24:31.008Z,2.70
2017-12-14T01:26:58.531Z,3.20
2017-12-14T01:29:26.738Z,3.00
2017-12-14T01:31:54.196Z,2.33
2017-12-14T01:34:21.703Z,2.63
2017-12-14T01:36:49.159Z,1.60
2017-12-14T01:39:16.812Z,3.00
2017-12-14T01:41:44.245Z,2.40
2017-12-14T01:44:11.706Z,2.23
2017-12-14T01:46:39.221Z,2.90
2017-12-14T01:49:06.756Z,2.80
2017-12-14T01:51:34.299Z,3.10
2017-12-14T01:54:01.744Z,2.40
2017-12-14T01:56:29.198Z,3.10
2017-12-14T01:58:57.412Z,3.00
2017-12-14T02:01:24.885Z,3.00
2017-12-14T02:03:52.378Z,3.30
2017-12-14T02:06:19.782Z,3.77
2017-12-14T02:08:47.334Z,2.97
2017-12-14T02:11:14.758Z,2.60
2017-12-14T02:13:42.202Z,2.80
2017-12-14T02:16:09.739Z,3.30
2017-12-14T02:18:37.161Z,2.50
2017-12-14T02:21:04.732Z,2.43
2017-12-14T02:23:33.028Z,2.10
2017-12-14T02:26:00.482Z,2.07
2017-12-14T02:28:28.739Z,2.20
2017-12-14T02:30:56.220Z,3.10
2017-12-14T02:33:23.741Z,2.43
2017-12-14T02:35:51.258Z,2.10
2017-12-14T02:38:18.722Z,1.93
2017-12-14T02:40:46.964Z,1.80
2017-12-14T02:43:14.479Z,1.80
2017-12-14T02:45:41.952Z,1.50
2017-12-14T02:48:09.409Z,1.63
2017-12-14T02:50:36.930Z,1.50
2017-12-14T02:53:05.215Z,2.57
2017-12-14T02:55:33.438Z,1.80
2017-12-14T02:58:00.940Z,1.50
2017-12-14T03:00:28.405Z,2.07
2017-12-14T03:02:55.928Z,1.27
2017-12-14T03:05:23.419Z,1.97
2017-12-14T03:07:50.889Z,1.13
2017-12-14T03:10:18.409Z,1.30
2017-12-14T03:12:45.914Z,1.13
2017-12-14T03:15:13.413Z,1.43
2017-12-14T03:17:41.702Z,1.20
2017-12-14T03:20:09.125Z,1.30
2017-12-14T03:22:36.574Z,1.10
2017-12-14T03:25:04.031Z,1.27
2017-12-14T03:27:31.611Z,1.40
2017-12-14T03:29:59.008Z,1.37
2017-12-14T03:32:26.485Z,2.20
2017-12-14T03:34:53.962Z,1.70
2017-12-14T03:37:21.516Z,1.70
2017-12-14T03:39:49.005Z,1.60
2017-12-14T03:42:16.491Z,1.30
2017-12-14T03:44:43.933Z,1.33
2017-12-14T03:47:11.401Z,1.73
2017-12-14T03:49:38.895Z,1.90
2017-12-14T03:52:07.129Z,1.40
2017-12-14T03:54:34.591Z,1.43
2017-12-14T03:57:02.101Z,2.20
2017-12-14T03:59:29.543Z,2.10
2017-12-14T04:01:57.026Z,1.43
2017-12-14T04:04:25.277Z,1.90
2017-12-14T04:06:52.774Z,1.60
2017-12-14T04:09:21.046Z,1.20
2017-12-14T04:11:48.536Z,1.83
2017-12-14T04:14:15.999Z,1.57
2017-12-14T04:16:44.203Z,1.30
2017-12-14T04:19:11.740Z,1.30
2017-12-14T04:21:39.229Z,1.80
2017-12-14T04:24:06.708Z,1.50
2017-12-14T04:26:34.194Z,1.40
2017-12-14T04:29:03.173Z,1.67
2017-12-14T04:31:30.650Z,1.70
2017-12-14T04:33:58.893Z,1.77
2017-12-14T04:36:26.365Z,2.00
2017-12-14T04:38:53.851Z,1.30
2017-12-14T04:41:21.320Z,1.10
2017-12-14T04:43:48.784Z,0.90
2017-12-14T04:46:16.266Z,0.70
2017-12-14T04:48:44.572Z,0.83
2017-12-14T04:51:12.062Z,1.20
2017-12-14T04:53:39.586Z,1.10
2017-12-14T04:56:07.034Z,0.73
2017-12-14T04:58:35.312Z,0.70
2017-12-14T05:01:03.528Z,0.73
2017-12-14T05:03:31.028Z,0.70
2017-12-14T05:05:59.268Z,0.60
2017-12-14T05:08:26.767Z,0.83
2017-12-14T05:10:54.233Z,0.60
2017-12-14T05:13:21.788Z,0.70
2017-12-14T05:15:49.324Z,0.60
2017-12-14T05:18:16.809Z,0.60
2017-12-14T05:20:44.295Z,0.70
2017-12-14T05:23:11.859Z,0.93
2017-12-14T05:25:39.342Z,0.60
2017-12-14T05:28:07.568Z,0.70
2017-12-14T05:30:35.061Z,0.80
2017-12-14T05:33:02.527Z,1.00
2017-12-14T05:35:30.216Z,1.60
2017-12-14T05:37:58.613Z,1.60
2017-12-14T05:40:26.171Z,1.30
2017-12-14T05:42:54.389Z,1.83
2017-12-14T05:45:21.906Z,1.87
2017-12-14T05:47:49.335Z,1.90
2017-12-14T05:50:16.870Z,2.13
2017-12-14T05:52:44.274Z,2.87
2017-12-14T05:55:11.738Z,2.10
2017-12-14T05:57:39.228Z,3.40
2017-12-14T06:00:06.738Z,2.77
2017-12-14T06:02:34.204Z,2.43
2017-12-14T06:05:01.695Z,2.63
2017-12-14T06:07:29.192Z,3.30
2017-12-14T06:09:56.689Z,2.93
2017-12-14T06:12:24.149Z,3.30
2017-12-14T06:14:51.606Z,3.30
2017-12-14T06:17:19.109Z,2.70
2017-12-14T06:19:46.576Z,2.30
2017-12-14T06:22:14.070Z,2.03
2017-12-14T06:24:41.532Z,2.13
2017-12-14T06:27:08.954Z,2.33
2017-12-14T06:29:37.221Z,3.03
2017-12-14T06:32:04.694Z,1.90
2017-12-14T06:34:32.154Z,2.23
2017-12-14T06:36:59.622Z,2.43
2017-12-14T06:39:27.998Z,2.60
2017-12-14T06:41:55.539Z,2.97
2017-12-14T06:44:23.006Z,3.23
2017-12-14T06:46:50.523Z,3.83
2017-12-14T06:49:18.006Z,3.30
2017-12-14T06:51:46.216Z,4.57
2017-12-14T06:54:13.671Z,4.93
2017-12-14T06:56:41.196Z,6.03
2017-12-14T06:59:08.660Z,3.87
2017-12-14T07:01:36.170Z,4.40
2017-12-14T07:04:03.627Z,5.50
2017-12-14T07:06:31.164Z,3.37
2017-12-14T07:08:59.414Z,5.43
2017-12-14T07:11:27.652Z,5.43
2017-12-14T07:13:55.149Z,6.03
2017-12-14T07:16:22.606Z,5.30
2017-12-14T07:18:50.861Z,3.70
2017-12-14T07:21:19.851Z,4.80
2017-12-14T07:23:47.359Z,4.30
2017-12-14T07:26:15.592Z,4.10
2017-12-14T07:28:43.127Z,3.57
2017-12-14T07:31:10.587Z,4.43
2017-12-14T07:33:38.102Z,4.43
2017-12-14T07:36:05.553Z,3.97
2017-12-14T07:38:33.068Z,4.33
2017-12-14T07:41:00.574Z,5.07
2017-12-14T07:43:28.096Z,5.80
2017-12-14T07:45:55.569Z,5.87
2017-12-14T07:48:23.050Z,5.40
2017-12-14T07:50:50.547Z,5.57
2017-12-14T07:53:18.128Z,4.33
2017-12-14T07:55:48.778Z,5.07
2017-12-14T07:58:16.241Z,6.30
2017-12-14T08:00:43.750Z,5.67
2017-12-14T08:03:11.276Z,5.43
2017-12-14T08:05:38.736Z,5.40
2017-12-14T08:08:06.283Z,6.00
2017-12-14T08:10:33.751Z,7.07
2017-12-14T08:13:01.299Z,5.73
2017-12-14T08:15:28.739Z,6.13
2017-12-14T08:17:56.275Z,6.13
2017-12-14T08:20:23.739Z,6.77
2017-12-14T08:22:51.260Z,6.27
2017-12-14T08:25:19.557Z,6.67
2017-12-14T08:27:46.995Z,5.63
2017-12-14T08:30:15.265Z,6.20
2017-12-14T08:32:42.754Z,5.40
2017-12-14T08:35:10.306Z,3.60
2017-12-14T08:37:37.728Z,4.97
2017-12-14T08:40:05.234Z,3.80
2017-12-14T08:42:32.679Z,4.23
2017-12-14T08:45:00.968Z,3.27
2017-12-14T08:47:28.456Z,3.10
2017-12-14T08:49:55.922Z,3.47
2017-12-14T08:52:23.406Z,3.40
2017-12-14T08:54:50.861Z,4.03
2017-12-14T08:57:18.341Z,3.00
2017-12-14T08:59:45.878Z,3.63
2017-12-14T09:02:13.326Z,3.30
2017-12-14T09:04:40.803Z,2.57
2017-12-14T09:07:08.276Z,2.23
2017-12-14T09:09:35.772Z,2.80
2017-12-14T09:12:03.237Z,2.63
2017-12-14T09:14:30.721Z,2.57
2017-12-14T09:16:58.983Z,2.60
2017-12-14T09:19:26.426Z,1.80
2017-12-14T09:21:53.963Z,2.00
2017-12-14T09:24:21.448Z,1.90
2017-12-14T09:26:48.908Z,1.67
2017-12-14T09:29:16.456Z,1.00
2017-12-14T09:31:44.631Z,1.27
2017-12-14T09:34:12.160Z,2.10
2017-12-14T09:36:40.454Z,1.90
2017-12-14T09:39:08.645Z,1.07
2017-12-14T09:41:36.293Z,1.30
2017-12-14T09:44:03.754Z,1.20
2017-12-14T09:46:31.989Z,1.60
2017-12-14T09:48:59.464Z,0.93
2017-12-14T09:51:26.913Z,1.30
2017-12-14T09:53:54.429Z,1.53
2017-12-14T09:56:22.637Z,2.10
2017-12-14T09:58:50.163Z,1.47
2017-12-14T10:01:18.390Z,1.73
2017-12-14T10:03:45.888Z,1.63
2017-12-14T10:06:13.367Z,1.43
2017-12-14T10:08:40.823Z,1.77
2017-12-14T10:11:09.122Z,1.20
2017-12-14T10:13:37.363Z,2.30
2017-12-14T10:16:04.804Z,1.47
2017-12-14T10:18:32.263Z,1.90
2017-12-14T10:20:59.811Z,1.07
2017-12-14T10:23:28.027Z,1.03
2017-12-14T10:25:55.578Z,1.20
2017-12-14T10:28:23.055Z,1.30
2017-12-14T10:30:50.518Z,1.27
2017-12-14T10:33:18.029Z,1.00
2017-12-14T10:35:45.499Z,1.47
2017-12-14T10:38:13.037Z,1.20
2017-12-14T10:40:41.308Z,1.50
2017-12-14T10:43:08.848Z,2.90
2017-12-14T10:45:36.303Z,1.00
2017-12-14T10:48:03.773Z,1.90
2017-12-14T10:50:31.249Z,1.47
2017-12-14T10:52:58.826Z,0.80
2017-12-14T10:55:27.013Z,1.80
2017-12-14T10:57:55.302Z,2.20
2017-12-14T11:00:23.539Z,2.97
2017-12-14T11:02:51.004Z,2.33
2017-12-14T11:05:18.499Z,1.40
2017-12-14T11:07:46.728Z,2.03
2017-12-14T11:10:14.266Z,2.10
2017-12-14T11:12:41.721Z,1.90
2017-12-14T11:15:09.297Z,2.60
2017-12-14T11:17:36.723Z,1.30
2017-12-14T11:20:05.043Z,1.20
2017-12-14T11:22:33.249Z,1.37
2017-12-14T11:25:00.968Z,2.03
2017-12-14T11:27:28.478Z,1.50
2017-12-14T11:29:55.969Z,1.20
2017-12-14T11:32:23.418Z,1.00
2017-12-14T11:34:50.918Z,1.30
2017-12-14T11:37:18.384Z,2.40
2017-12-14T11:39:45.904Z,0.93
2017-12-14T11:42:13.369Z,1.07
2017-12-14T11:44:40.880Z,1.40
2017-12-14T11:47:08.361Z,1.23
2017-12-14T11:49:35.870Z,1.30
2017-12-14T11:52:04.172Z,1.00
2017-12-14T11:54:31.603Z,0.90
2017-12-14T11:56:59.095Z,1.00
2017-12-14T11:59:27.329Z,1.00
2017-12-14T12:01:54.805Z,1.20
2017-12-14T12:04:22.309Z,1.20
2017-12-14T12:06:49.805Z,0.90
2017-12-14T12:09:17.292Z,0.80
2017-12-14T12:11:44.819Z,1.13
2017-12-14T12:14:12.357Z,1.13
2017-12-14T12:16:39.843Z,1.00
2017-12-14T12:19:07.292Z,0.90
2017-12-14T12:21:34.850Z,1.10
2017-12-14T12:24:02.413Z,1.67
2017-12-14T12:26:29.875Z,1.23
2017-12-14T12:28:57.410Z,1.20
2017-12-14T12:31:25.868Z,1.43
2017-12-14T12:33:53.360Z,1.30
2017-12-14T12:36:21.541Z,1.33
2017-12-14T12:38:49.034Z,1.20
2017-12-14T12:41:16.543Z,1.43
2017-12-14T12:43:44.046Z,0.73
2017-12-14T12:46:11.570Z,1.00
2017-12-14T12:48:38.988Z,1.00
2017-12-14T12:51:06.512Z,1.50
2017-12-14T12:53:33.986Z,1.70
2017-12-14T12:56:02.527Z,2.20
2017-12-14T12:58:29.938Z,1.30
2017-12-14T13:00:58.240Z,1.40
2017-12-14T13:03:25.753Z,1.30
2017-12-14T13:05:53.267Z,0.53
2017-12-14T13:08:20.770Z,0.90
2017-12-14T13:10:48.401Z,1.17
2017-12-14T13:13:15.852Z,1.77
2017-12-14T13:15:43.364Z,1.30
2017-12-14T13:18:10.807Z,1.50
2017-12-14T13:20:38.366Z,1.20
2017-12-14T13:23:05.867Z,1.30
2017-12-14T13:25:33.408Z,1.77
2017-12-14T13:28:01.631Z,1.00
2017-12-14T13:30:29.850Z,1.60
2017-12-14T13:32:57.407Z,1.50
2017-12-14T13:35:25.615Z,1.30
2017-12-14T13:37:53.086Z,0.90
2017-12-14T13:40:20.624Z,1.20
2017-12-14T13:42:48.162Z,1.20
2017-12-14T13:45:15.731Z,1.70
2017-12-14T13:47:43.202Z,1.20
2017-12-14T13:50:10.695Z,2.23
2017-12-14T13:52:38.205Z,3.17
2017-12-14T13:55:06.614Z,1.37
2017-12-14T13:57:33.992Z,1.97
2017-12-14T14:00:02.211Z,1.30
2017-12-14T14:02:29.811Z,1.30
2017-12-14T14:04:57.328Z,1.20
2017-12-14T14:07:24.807Z,1.47
2017-12-14T14:09:52.333Z,1.80
2017-12-14T14:12:20.585Z,1.50
2017-12-14T14:14:48.040Z,0.90
2017-12-14T14:17:15.567Z,1.30
2017-12-14T14:19:43.069Z,1.00
2017-12-14T14:22:10.585Z,1.23
2017-12-14T14:24:38.157Z,1.80
2017-12-14T14:27:05.615Z,1.80
2017-12-14T14:29:33.066Z,2.20
2017-12-14T14:32:00.841Z,0.93
2017-12-14T14:34:28.359Z,0.90
2017-12-14T14:36:57.328Z,2.23
2017-12-14T14:39:28.292Z,1.03
2017-12-14T14:41:55.872Z,1.13
2017-12-14T14:44:23.385Z,0.83
2017-12-14T14:46:50.812Z,0.80
2017-12-14T14:49:18.331Z,0.80
2017-12-14T14:51:45.820Z,1.20
2017-12-14T14:54:14.059Z,1.00
2017-12-14T14:56:41.529Z,1.57
2017-12-14T14:59:09.769Z,1.40
2017-12-14T15:01:37.265Z,1.40
2017-12-14T15:04:04.756Z,1.20
2017-12-14T15:06:33.318Z,1.10
2017-12-14T15:09:00.773Z,1.10
2017-12-14T15:11:28.274Z,1.20
2017-12-14T15:13:55.756Z,1.57
2017-12-14T15:16:24.002Z,1.77
2017-12-14T15:18:52.300Z,1.00
2017-12-14T15:21:20.518Z,1.00
2017-12-14T15:23:48.087Z,1.27
2017-12-14T15:26:15.541Z,0.90
2017-12-14T15:28:43.014Z,1.40
2017-12-14T15:31:10.466Z,1.20
2017-12-14T15:33:37.983Z,1.40
2017-12-14T15:36:05.456Z,1.70
2017-12-14T15:38:32.923Z,0.90
2017-12-14T15:41:00.435Z,1.47
2017-12-14T15:43:27.927Z,1.10
2017-12-14T15:45:56.221Z,1.27
2017-12-14T15:48:23.702Z,1.20
2017-12-14T15:50:51.192Z,1.13
2017-12-14T15:53:18.678Z,1.40
2017-12-14T15:55:46.145Z,1.90
2017-12-14T15:58:13.660Z,2.20
2017-12-14T16:00:41.904Z,1.60
2017-12-14T16:03:10.193Z,1.80
2017-12-14T16:05:38.424Z,1.13
2017-12-14T16:08:06.063Z,1.70
2017-12-14T16:10:33.559Z,1.67
2017-12-14T16:13:01.079Z,1.80
2017-12-14T16:15:28.592Z,1.50
2017-12-14T16:17:56.074Z,2.70
2017-12-14T16:20:23.546Z,1.43
2017-12-14T16:22:51.133Z,1.40
2017-12-14T16:25:18.601Z,1.50
2017-12-14T16:27:46.298Z,1.40
2017-12-14T16:30:14.494Z,1.73
2017-12-14T16:32:42.037Z,1.70
2017-12-14T16:35:09.472Z,1.60
2017-12-14T16:37:37.111Z,1.50
2017-12-14T16:40:04.580Z,1.70
2017-12-14T16:42:32.046Z,1.63
2017-12-14T16:44:59.609Z,1.33
2017-12-14T16:47:27.059Z,1.83
2017-12-14T16:49:54.525Z,1.60
2017-12-14T16:52:22.779Z,1.67
2017-12-14T16:54:50.267Z,1.20
2017-12-14T16:57:18.544Z,2.77
2017-12-14T16:59:46.065Z,2.20
2017-12-14T17:02:13.581Z,2.17
2017-12-14T17:04:41.068Z,1.80
2017-12-14T17:07:08.535Z,1.80
2017-12-14T17:09:36.067Z,2.67
2017-12-14T17:12:03.522Z,2.47
2017-12-14T17:14:30.988Z,2.20
2017-12-14T17:16:58.453Z,2.17
2017-12-14T17:19:26.757Z,2.43
2017-12-14T17:21:54.294Z,2.40
2017-12-14T17:24:22.552Z,2.90
2017-12-14T17:26:50.032Z,2.50
2017-12-14T17:29:18.274Z,2.60
2017-12-14T17:31:45.822Z,3.27
2017-12-14T17:34:13.356Z,3.67
2017-12-14T17:36:41.640Z,3.83
2017-12-14T17:39:09.201Z,3.20
2017-12-14T17:41:36.644Z,3.80
2017-12-14T17:44:05.045Z,4.10
2017-12-14T17:46:32.571Z,3.50
2017-12-14T17:49:00.082Z,4.00
2017-12-14T17:51:27.582Z,4.20
2017-12-14T17:53:55.098Z,4.37
2017-12-14T17:56:23.398Z,4.70
2017-12-14T17:58:50.989Z,5.20
2017-12-14T18:01:19.240Z,4.10
2017-12-14T18:03:46.771Z,4.30
2017-12-14T18:06:14.179Z,4.10
2017-12-14T18:08:41.676Z,4.23
2017-12-14T18:11:09.185Z,4.37
2017-12-14T18:13:36.664Z,4.70
2017-12-14T18:16:04.170Z,3.47
2017-12-14T18:18:31.635Z,3.77
2017-12-14T18:20:59.150Z,3.50
2017-12-14T18:23:26.661Z,3.80
2017-12-14T18:25:54.223Z,3.60
2017-12-14T18:28:21.686Z,3.63
2017-12-14T18:30:49.113Z,3.97
2017-12-14T18:33:16.584Z,3.43
2017-12-14T18:35:44.863Z,3.20
2017-12-14T18:38:12.366Z,3.77
2017-12-14T18:40:40.673Z,2.97
2017-12-14T18:43:08.166Z,3.03
2017-12-14T18:45:35.631Z,3.43
2017-12-14T18:48:03.101Z,2.77
2017-12-14T18:50:30.567Z,3.00
2017-12-14T18:52:58.096Z,3.73
2017-12-14T18:55:25.545Z,3.03
2017-12-14T18:57:53.078Z,3.23
2017-12-14T19:00:20.562Z,2.67
2017-12-14T19:02:48.096Z,3.40
2017-12-14T19:05:15.579Z,3.10
2017-12-14T19:07:43.865Z,4.03
2017-12-14T19:10:11.470Z,4.20
2017-12-14T19:12:38.984Z,3.10
2017-12-14T19:15:07.259Z,3.80
2017-12-14T19:17:34.771Z,3.87
2017-12-14T19:20:02.322Z,4.27
2017-12-14T19:22:30.613Z,4.77
2017-12-14T19:24:58.078Z,4.47
2017-12-14T19:27:26.287Z,4.00
2017-12-14T19:29:53.733Z,4.33
2017-12-14T19:32:21.253Z,3.77
2017-12-14T19:34:48.707Z,3.90
2017-12-14T19:37:16.166Z,4.10
2017-12-14T19:39:44.453Z,4.73
2017-12-14T19:42:12.689Z,4.90
2017-12-14T19:44:40.204Z,3.93
2017-12-14T19:47:07.692Z,3.50
2017-12-14T19:49:35.145Z,3.93
2017-12-14T19:52:02.702Z,3.60
2017-12-14T19:54:30.181Z,3.87
2017-12-14T19:56:57.683Z,3.87
2017-12-14T19:59:25.215Z,2.93
2017-12-14T20:01:52.703Z,3.00
2017-12-14T20:04:20.236Z,2.77
2017-12-14T20:06:47.725Z,2.87
2017-12-14T20:09:15.204Z,2.40
2017-12-14T20:11:42.647Z,3.63
2017-12-14T20:14:10.203Z,3.50
2017-12-14T20:16:37.668Z,2.43
2017-12-14T20:19:05.164Z,2.93
2017-12-14T20:21:33.398Z,2.83
2017-12-14T20:24:00.877Z,3.53
2017-12-14T20:26:28.375Z,3.63
2017-12-14T20:28:56.747Z,3.10
2017-12-14T20:31:24.201Z,4.60
2017-12-14T20:33:51.651Z,3.67
2017-12-14T20:36:19.139Z,3.10
2017-12-14T20:38:46.599Z,4.47
2017-12-14T20:41:14.116Z,4.20
2017-12-14T20:43:41.603Z,5.53
2017-12-14T20:46:09.112Z,5.17
2017-12-14T20:48:36.563Z,5.40
2017-12-14T20:51:04.021Z,5.30
2017-12-14T20:53:31.510Z,5.03
2017-12-14T20:55:59.012Z,3.70
2017-12-14T20:58:26.512Z,3.37
2017-12-14T21:00:53.959Z,5.10
2017-12-14T21:03:21.495Z,4.53
2017-12-14T21:05:48.998Z,5.67
2017-12-14T21:08:16.525Z,5.43
2017-12-14T21:10:44.037Z,3.90
2017-12-14T21:13:11.562Z,4.03
2017-12-14T21:15:39.079Z,3.80
2017-12-14T21:18:06.573Z,3.20
2017-12-14T21:20:34.043Z,3.00
2017-12-14T21:23:01.544Z,3.33
2017-12-14T21:25:29.820Z,3.30
2017-12-14T21:27:57.303Z,3.70
2017-12-14T21:30:24.769Z,3.70
2017-12-14T21:32:52.241Z,3.70
2017-12-14T21:35:19.753Z,4.37
2017-12-14T21:37:47.169Z,4.50
2017-12-14T21:40:14.709Z,3.50
2017-12-14T21:42:42.944Z,4.27
2017-12-14T21:45:10.562Z,3.07
2017-12-14T21:47:38.829Z,3.20
2017-12-14T21:50:07.084Z,3.60
2017-12-14T21:52:34.555Z,2.83
2017-12-14T21:55:02.099Z,2.50
2017-12-14T21:57:30.398Z,2.40
2017-12-14T21:59:57.826Z,2.13
2017-12-14T22:02:25.392Z,2.30
2017-12-14T22:04:52.922Z,1.47
2017-12-14T22:07:20.429Z,1.17
2017-12-14T22:09:47.906Z,1.20
2017-12-14T22:12:15.391Z,2.00
2017-12-14T22:14:43.676Z,1.47
2017-12-14T22:17:11.958Z,1.73
2017-12-14T22:19:39.433Z,1.30
2017-12-14T22:22:07.672Z,1.73
2017-12-14T22:24:35.137Z,2.00
2017-12-14T22:27:02.701Z,1.63
2017-12-14T22:29:30.198Z,2.03
2017-12-14T22:31:58.430Z,1.90
2017-12-14T22:34:25.928Z,1.20
2017-12-14T22:36:53.386Z,1.43
2017-12-14T22:39:20.877Z,1.83
2017-12-14T22:41:49.085Z,1.50
2017-12-14T22:44:16.567Z,1.57
2017-12-14T22:46:44.051Z,1.17
2017-12-14T22:49:11.628Z,1.30
2017-12-14T22:51:39.042Z,1.33
2017-12-14T22:54:06.592Z,0.80
2017-12-14T22:56:34.045Z,0.90
2017-12-14T22:59:01.518Z,2.37
2017-12-14T23:01:29.062Z,2.40
2017-12-14T23:03:56.540Z,1.13
2017-12-14T23:06:24.016Z,0.97
2017-12-14T23:08:51.547Z,1.10
2017-12-14T23:11:18.997Z,1.10
2017-12-14T23:13:47.267Z,1.00
2017-12-14T23:16:15.545Z,0.93
2017-12-14T23:18:43.817Z,1.10
2017-12-14T23:21:11.285Z,1.23
2017-12-14T23:23:39.546Z,1.17
2017-12-14T23:26:07.013Z,1.10
2017-12-14T23:28:34.482Z,0.90
2017-12-14T23:31:01.977Z,1.40
2017-12-14T23:33:29.455Z,1.10
2017-12-14T23:35:56.950Z,1.33
2017-12-14T23:38:24.472Z,1.33
2017-12-14T23:40:52.698Z,1.70
2017-12-14T23:43:20.327Z,1.43
2017-12-14T23:45:47.810Z,1.90
2017-12-14T23:48:15.281Z,2.17
2017-12-14T23:50:42.755Z,2.10
2017-12-14T23:53:10.488Z,1.83
2017-12-14T23:55:38.000Z,1.70
2017-12-14T23:58:05.669Z,2.23
